Time;durP1;ratioP1;P1;durP2;ratioP2;P2;SDS_P1;SDS_P2;PMS_P1;PMS_P2;Temp;Humidity;BMP_temperature;BMP_pressure;BME280_temperature;BME280_humidity;BME280_pressure;Samples;Min_cycle;Max_cycle;Signal;HPM_P1;HPM_P2
2023/03/12 00:00:54;;;;;;;12.50;7.82;;;-0.20;99.90;;;;;;7373027;19;20531;-69
2023/03/12 00:03:21;;;;;;;12.15;7.53;;;-0.20;99.90;;;;;;7367707;19;20034;-69
2023/03/12 00:05:47;;;;;;;11.98;7.47;;;-0.20;99.90;;;;;;7376570;19;20970;-69
2023/03/12 00:08:13;;;;;;;10.57;8.07;;;-0.30;99.90;;;;;;7372111;19;20026;-69
2023/03/12 00:10:41;;;;;;;12.15;8.32;;;-0.30;99.90;;;;;;7373923;19;20074;-69
2023/03/12 00:13:07;;;;;;;9.65;8.02;;;-0.30;99.90;;;;;;7371968;19;20010;-70
2023/03/12 00:15:38;;;;;;;18.50;7.38;;;-0.40;99.90;;;;;;7372455;19;20018;-70
2023/03/12 00:18:04;;;;;;;9.63;7.43;;;-0.40;99.90;;;;;;7374032;19;20015;-69
2023/03/12 00:20:31;;;;;;;10.13;7.75;;;-0.40;99.90;;;;;;7374673;19;20033;-70
2023/03/12 00:22:57;;;;;;;9.82;7.63;;;-0.40;99.90;;;;;;7375615;19;20625;-64
2023/03/12 00:25:23;;;;;;;12.15;7.75;;;-0.50;99.90;;;;;;7372848;19;20022;-70
2023/03/12 00:27:50;;;;;;;11.43;7.40;;;-0.40;99.90;;;;;;7371378;19;20033;-64
2023/03/12 00:30:16;;;;;;;11.35;8.00;;;-0.40;99.90;;;;;;7370497;19;20513;-64
2023/03/12 00:32:43;;;;;;;12.63;8.10;;;-0.40;99.90;;;;;;7372174;19;20121;-64
2023/03/12 00:35:10;;;;;;;10.43;8.07;;;-0.40;99.90;;;;;;7373367;19;20089;-70
2023/03/12 00:37:37;;;;;;;12.48;8.05;;;-0.40;99.90;;;;;;7370749;19;20039;-70
2023/03/12 00:40:04;;;;;;;11.13;7.90;;;-0.40;99.90;;;;;;7371976;19;20018;-70
2023/03/12 00:42:31;;;;;;;10.73;7.82;;;-0.40;99.90;;;;;;7371624;19;20047;-64
2023/03/12 00:44:57;;;;;;;11.25;8.55;;;-0.50;99.90;;;;;;7372632;19;20370;-64
2023/03/12 00:47:25;;;;;;;11.95;8.13;;;-0.50;99.90;;;;;;7373393;19;20426;-64
2023/03/12 00:49:51;;;;;;;15.60;10.50;;;-0.50;99.90;;;;;;7374841;19;20019;-64
2023/03/12 00:52:17;;;;;;;22.58;15.05;;;-0.50;99.90;;;;;;7372005;19;20018;-64
2023/03/12 00:54:44;;;;;;;19.17;12.55;;;-0.50;99.90;;;;;;7376463;19;20019;-64
2023/03/12 00:57:10;;;;;;;16.05;10.60;;;-0.50;99.90;;;;;;7371068;19;20022;-63
2023/03/12 00:59:39;;;;;;;18.77;11.68;;;-0.50;99.90;;;;;;7373410;19;20011;-63
2023/03/12 01:02:06;;;;;;;16.52;11.30;;;-0.50;99.90;;;;;;7370503;19;20022;-64
2023/03/12 01:04:33;;;;;;;18.77;11.10;;;-0.50;99.90;;;;;;7373107;19;20800;-64
2023/03/12 01:06:59;;;;;;;14.57;10.85;;;-0.50;99.90;;;;;;7373235;19;20684;-66
2023/03/12 01:09:25;;;;;;;15.43;10.60;;;-0.50;99.90;;;;;;7374985;19;20014;-64
2023/03/12 01:11:52;;;;;;;15.90;10.55;;;-0.50;99.90;;;;;;7373785;19;20025;-64
2023/03/12 01:14:18;;;;;;;15.40;11.40;;;-0.50;99.90;;;;;;7374212;19;20022;-64
2023/03/12 01:16:44;;;;;;;14.77;9.80;;;-0.50;99.90;;;;;;7373387;19;20046;-64
2023/03/12 01:19:11;;;;;;;11.27;9.00;;;-0.50;99.90;;;;;;7370824;19;20023;-64
2023/03/12 01:21:38;;;;;;;12.20;8.90;;;-0.50;99.90;;;;;;7374087;19;20099;-64
2023/03/12 01:24:05;;;;;;;11.32;8.40;;;-0.40;99.90;;;;;;7371893;19;20014;-65
2023/03/12 01:26:32;;;;;;;16.13;8.77;;;-0.40;99.90;;;;;;7372822;19;20049;-65
2023/03/12 01:28:58;;;;;;;15.30;9.38;;;-0.40;99.90;;;;;;7370787;19;20748;-64
2023/03/12 01:31:24;;;;;;;12.63;7.57;;;-0.30;99.90;;;;;;7370026;19;20564;-65
2023/03/12 01:33:53;;;;;;;11.25;8.38;;;-0.30;99.90;;;;;;7372802;19;20383;-64
2023/03/12 01:36:22;;;;;;;11.55;7.43;;;-0.30;99.90;;;;;;7369981;19;20018;-64
2023/03/12 01:38:55;;;;;;;14.90;8.18;;;-0.30;99.90;;;;;;7372181;19;20064;-65
2023/03/12 01:41:23;;;;;;;11.10;8.25;;;-0.20;99.90;;;;;;7372265;19;20648;-70
2023/03/12 01:43:50;;;;;;;12.75;7.78;;;-0.20;99.90;;;;;;7371446;19;20030;-70
2023/03/12 01:46:32;;;;;;;9.95;8.27;;;-0.10;99.90;;;;;;7366251;19;20390;-70
2023/03/12 01:49:17;;;;;;;11.65;8.32;;;-0.20;99.90;;;;;;7370436;19;20512;-64
2023/03/12 01:52:02;;;;;;;10.23;8.07;;;-0.10;99.90;;;;;;7369555;19;20039;-64
2023/03/12 01:54:40;;;;;;;11.45;7.32;;;-0.10;99.90;;;;;;7371114;19;20022;-64
2023/03/12 01:57:12;;;;;;;11.25;7.45;;;-0.10;99.90;;;;;;7374145;19;20026;-69
2023/03/12 01:59:47;;;;;;;9.95;6.72;;;-0.10;99.90;;;;;;7379700;19;20010;-64
2023/03/12 02:02:17;;;;;;;13.10;6.85;;;-0.10;99.90;;;;;;7377184;19;20015;-70
2023/03/12 02:04:44;;;;;;;8.95;6.30;;;0.00;99.90;;;;;;7378921;19;20014;-64
2023/03/12 02:07:13;;;;;;;9.80;6.93;;;0.10;99.90;;;;;;7376211;19;20022;-64
2023/03/12 02:09:47;;;;;;;10.90;7.22;;;0.10;99.90;;;;;;7379262;19;20021;-65
2023/03/12 02:12:14;;;;;;;10.63;7.35;;;0.10;99.90;;;;;;7376567;19;20014;-64
2023/03/12 02:14:41;;;;;;;11.02;6.38;;;0.20;99.90;;;;;;7378225;19;20014;-64
2023/03/12 02:17:09;;;;;;;7.30;6.05;;;0.10;99.90;;;;;;7374497;19;20019;-64
2023/03/12 02:20:06;;;;;;;8.82;6.43;;;0.20;99.90;;;;;;7380757;19;20021;-64
2023/03/12 02:22:35;;;;;;;10.73;6.68;;;0.20;99.90;;;;;;7378370;19;20014;-64
2023/03/12 02:25:27;;;;;;;12.45;6.65;;;0.20;99.90;;;;;;7379494;19;20024;-64
2023/03/12 02:27:54;;;;;;;9.82;6.72;;;0.20;99.90;;;;;;7380110;19;20497;-64
2023/03/12 02:30:21;;;;;;;11.32;6.50;;;0.20;99.90;;;;;;7375784;19;20043;-70
2023/03/12 02:32:50;;;;;;;9.60;6.38;;;0.20;99.90;;;;;;7377897;19;20018;-70
2023/03/12 02:35:17;;;;;;;10.20;6.82;;;0.20;99.90;;;;;;7376762;19;20481;-70
2023/03/12 02:37:52;;;;;;;11.50;7.22;;;0.20;99.90;;;;;;7378188;19;20024;-70
2023/03/12 02:40:28;;;;;;;7.78;6.10;;;0.20;99.90;;;;;;7376371;19;20043;-70
2023/03/12 02:42:55;;;;;;;12.02;6.45;;;0.30;99.90;;;;;;7378765;19;20025;-70
2023/03/12 02:45:22;;;;;;;8.85;5.82;;;0.30;99.90;;;;;;7374811;19;20106;-70
2023/03/12 02:47:49;;;;;;;8.35;6.20;;;0.30;99.90;;;;;;7374889;19;20033;-70
2023/03/12 02:50:19;;;;;;;7.75;6.15;;;0.30;99.90;;;;;;7377114;19;20614;-71
2023/03/12 02:52:45;;;;;;;9.30;6.05;;;0.40;99.90;;;;;;7374721;19;20410;-64
2023/03/12 02:55:11;;;;;;;9.70;6.10;;;0.40;99.90;;;;;;7375905;19;20018;-64
2023/03/12 02:57:37;;;;;;;10.95;6.90;;;0.40;99.90;;;;;;7376768;19;20015;-65
2023/03/12 03:00:13;;;;;;;9.02;5.57;;;0.50;99.90;;;;;;7376838;19;20054;-64
2023/03/12 03:02:42;;;;;;;8.48;5.40;;;0.50;99.90;;;;;;7374993;19;20014;-64
2023/03/12 03:05:10;;;;;;;12.35;6.65;;;0.60;99.90;;;;;;7375198;19;20030;-64
2023/03/12 03:07:36;;;;;;;8.68;5.45;;;0.60;99.90;;;;;;7371954;19;20029;-64
2023/03/12 03:10:04;;;;;;;8.82;5.60;;;0.60;99.90;;;;;;7368104;19;20023;-64
2023/03/12 03:12:31;;;;;;;8.95;5.78;;;0.60;99.90;;;;;;7375403;19;20050;-70
2023/03/12 03:14:59;;;;;;;10.77;5.60;;;0.70;99.90;;;;;;7377458;19;20022;-70
2023/03/12 03:17:26;;;;;;;9.52;5.63;;;0.70;99.90;;;;;;7367562;19;20014;-65
2023/03/12 03:19:53;;;;;;;8.35;5.20;;;0.70;99.90;;;;;;7376212;19;20015;-64
2023/03/12 03:22:20;;;;;;;11.23;5.95;;;0.70;99.90;;;;;;7375505;19;20359;-64
2023/03/12 03:24:47;;;;;;;9.40;5.55;;;0.70;99.90;;;;;;7375982;19;20046;-64
2023/03/12 03:27:14;;;;;;;7.70;5.15;;;0.80;99.90;;;;;;7373359;19;20068;-70
2023/03/12 03:29:40;;;;;;;10.20;4.88;;;0.80;99.90;;;;;;7376100;19;20381;-64
2023/03/12 03:32:07;;;;;;;7.97;5.50;;;0.90;99.90;;;;;;7372861;19;20022;-70
2023/03/12 03:34:33;;;;;;;8.15;5.03;;;1.00;99.90;;;;;;7377436;19;20366;-64
2023/03/12 03:37:00;;;;;;;8.07;5.30;;;1.00;99.90;;;;;;7378109;19;20351;-64
2023/03/12 03:39:31;;;;;;;11.88;5.22;;;1.10;99.90;;;;;;7377733;19;20365;-64
2023/03/12 03:41:58;;;;;;;8.90;6.00;;;1.10;99.90;;;;;;7377424;19;20011;-64
2023/03/12 03:44:26;;;;;;;6.65;5.05;;;1.10;99.90;;;;;;7377112;19;20023;-64
2023/03/12 03:46:54;;;;;;;8.63;4.93;;;1.10;99.90;;;;;;7374785;19;20480;-69
2023/03/12 03:49:21;;;;;;;8.90;6.18;;;1.20;99.90;;;;;;7376268;19;20022;-69
2023/03/12 03:51:48;;;;;;;9.73;5.53;;;1.20;99.90;;;;;;7374766;19;20435;-64
2023/03/12 03:54:20;;;;;;;11.00;5.68;;;1.20;99.90;;;;;;7375900;19;20045;-64
2023/03/12 03:56:46;;;;;;;9.55;5.90;;;1.10;99.90;;;;;;7375845;19;20017;-70
2023/03/12 03:59:13;;;;;;;9.20;5.75;;;1.10;99.90;;;;;;7374542;19;20086;-69
2023/03/12 04:01:41;;;;;;;9.88;5.40;;;1.10;99.90;;;;;;7377210;19;20512;-70
2023/03/12 04:04:07;;;;;;;8.57;6.20;;;1.10;99.90;;;;;;7374820;19;20034;-70
2023/03/12 04:06:34;;;;;;;7.80;5.60;;;1.10;99.90;;;;;;7377441;19;20022;-69
2023/03/12 04:09:00;;;;;;;8.93;5.80;;;1.10;99.90;;;;;;7375345;19;20830;-70
2023/03/12 04:11:29;;;;;;;8.70;5.78;;;1.10;99.90;;;;;;7372653;19;20386;-70
2023/03/12 04:13:57;;;;;;;7.13;5.75;;;1.10;99.90;;;;;;7374564;19;20014;-64
2023/03/12 04:16:25;;;;;;;9.05;5.50;;;1.20;99.90;;;;;;7372821;19;20014;-70
2023/03/12 04:18:53;;;;;;;9.93;6.68;;;1.10;99.90;;;;;;7373372;19;20064;-69
2023/03/12 04:21:21;;;;;;;7.93;5.82;;;1.10;99.90;;;;;;7372869;19;20025;-69
2023/03/12 04:23:49;;;;;;;10.55;5.80;;;1.10;99.90;;;;;;7375103;19;20022;-70
2023/03/12 04:26:16;;;;;;;9.32;6.10;;;1.00;99.90;;;;;;7373018;19;20011;-64
2023/03/12 04:28:43;;;;;;;12.82;6.47;;;1.10;99.90;;;;;;7373491;19;20030;-64
2023/03/12 04:31:11;;;;;;;8.50;6.00;;;1.10;99.90;;;;;;7372060;19;20022;-64
2023/03/12 04:33:46;;;;;;;8.82;5.72;;;1.20;99.90;;;;;;7374189;19;20018;-64
2023/03/12 04:36:15;;;;;;;8.85;5.47;;;1.10;99.90;;;;;;7373668;19;20121;-64
2023/03/12 04:38:44;;;;;;;9.50;6.03;;;1.20;99.90;;;;;;7374931;19;20018;-64
2023/03/12 04:41:13;;;;;;;10.93;6.40;;;1.20;99.90;;;;;;7373564;19;20046;-64
2023/03/12 04:43:45;;;;;;;11.38;6.05;;;1.20;99.90;;;;;;7373925;19;20047;-64
2023/03/12 04:46:12;;;;;;;9.93;6.32;;;1.20;99.90;;;;;;7372271;19;20363;-64
2023/03/12 04:48:40;;;;;;;11.15;5.30;;;1.20;99.90;;;;;;7374059;19;20015;-64
2023/03/12 04:51:07;;;;;;;9.32;6.38;;;1.10;99.90;;;;;;7374306;19;20014;-64
2023/03/12 04:53:34;;;;;;;9.07;5.72;;;1.20;99.90;;;;;;7375079;19;20062;-64
2023/03/12 04:56:01;;;;;;;9.10;5.45;;;1.20;99.90;;;;;;7376112;19;20035;-64
2023/03/12 04:58:28;;;;;;;9.38;6.15;;;1.20;99.90;;;;;;7374107;19;20022;-64
2023/03/12 05:00:55;;;;;;;11.23;6.32;;;1.20;99.90;;;;;;7377606;19;20014;-64
2023/03/12 05:03:22;;;;;;;10.40;5.68;;;1.30;99.90;;;;;;7372939;19;20489;-69
2023/03/12 05:05:48;;;;;;;11.93;5.55;;;1.30;99.90;;;;;;7374723;19;20505;-64
2023/03/12 05:08:15;;;;;;;12.73;5.65;;;1.30;99.90;;;;;;7369875;19;20030;-69
2023/03/12 05:10:44;;;;;;;10.27;6.20;;;1.30;99.90;;;;;;7374714;19;20015;-69
2023/03/12 05:13:17;;;;;;;9.98;6.35;;;1.30;99.90;;;;;;7372462;19;20027;-69
2023/03/12 05:15:44;;;;;;;8.73;5.90;;;1.30;99.90;;;;;;7370670;19;20022;-69
2023/03/12 05:18:10;;;;;;;12.52;6.38;;;1.30;99.90;;;;;;7369894;19;20014;-68
2023/03/12 05:20:37;;;;;;;8.85;5.72;;;1.30;99.90;;;;;;7368563;19;20966;-69
2023/03/12 05:23:03;;;;;;;10.38;5.88;;;1.30;99.90;;;;;;7373200;19;20029;-69
2023/03/12 05:25:30;;;;;;;12.40;6.07;;;1.30;99.90;;;;;;7365728;19;20477;-64
2023/03/12 05:27:56;;;;;;;12.73;5.72;;;1.30;99.90;;;;;;7366535;19;20369;-69
2023/03/12 05:30:24;;;;;;;11.10;6.57;;;1.30;99.90;;;;;;7356999;19;20026;-64
2023/03/12 05:32:51;;;;;;;10.05;6.00;;;1.30;99.90;;;;;;7376958;19;20023;-64
2023/03/12 05:35:17;;;;;;;9.25;5.47;;;1.30;99.90;;;;;;7374931;19;20115;-66
2023/03/12 05:37:45;;;;;;;9.75;5.85;;;1.30;99.90;;;;;;7373278;19;20443;-70
2023/03/12 05:40:12;;;;;;;10.45;6.50;;;1.30;99.90;;;;;;7375054;19;21008;-70
2023/03/12 05:42:39;;;;;;;11.38;6.70;;;1.30;99.90;;;;;;7368375;19;20061;-70
2023/03/12 05:45:08;;;;;;;11.55;6.70;;;1.20;99.90;;;;;;7377171;19;20825;-70
2023/03/12 05:47:35;;;;;;;11.40;6.28;;;1.30;99.90;;;;;;7377187;19;20496;-70
2023/03/12 05:50:04;;;;;;;13.10;6.63;;;1.30;99.90;;;;;;7378038;19;20501;-70
2023/03/12 05:52:30;;;;;;;10.48;6.70;;;1.30;99.90;;;;;;7369916;19;20914;-69
2023/03/12 05:54:57;;;;;;;12.00;7.07;;;1.30;99.90;;;;;;7378156;19;20033;-70
2023/03/12 05:57:23;;;;;;;8.93;6.20;;;1.30;99.90;;;;;;7376654;19;20478;-69
2023/03/12 05:59:49;;;;;;;9.82;6.57;;;1.30;99.90;;;;;;7374137;19;20858;-68
2023/03/12 06:02:15;;;;;;;10.60;7.05;;;1.30;99.90;;;;;;7371644;19;20010;-63
2023/03/12 06:04:42;;;;;;;9.95;7.22;;;1.20;99.90;;;;;;7367777;19;20021;-63
2023/03/12 06:07:09;;;;;;;14.48;7.78;;;1.30;99.90;;;;;;7369197;19;20062;-63
2023/03/12 06:09:35;;;;;;;11.40;7.57;;;1.20;99.90;;;;;;7369093;19;21962;-63
2023/03/12 06:12:03;;;;;;;11.57;7.88;;;1.20;99.90;;;;;;7365246;19;20037;-63
2023/03/12 06:14:33;;;;;;;15.15;9.02;;;1.20;99.90;;;;;;7364215;19;20383;-63
2023/03/12 06:17:00;;;;;;;9.95;8.05;;;1.10;99.90;;;;;;7365727;19;20947;-63
2023/03/12 06:19:28;;;;;;;10.25;7.82;;;1.20;99.90;;;;;;7363580;19;20074;-63
2023/03/12 06:21:54;;;;;;;14.93;8.27;;;1.20;99.90;;;;;;7372359;19;20022;-63
2023/03/12 06:24:21;;;;;;;13.63;8.75;;;1.30;99.90;;;;;;7373725;19;20405;-63
2023/03/12 06:26:53;;;;;;;10.47;7.73;;;1.30;99.90;;;;;;7374165;19;20068;-63
2023/03/12 06:29:19;;;;;;;13.25;8.35;;;1.30;99.90;;;;;;7374499;19;21839;-62
2023/03/12 06:31:47;;;;;;;13.07;9.13;;;1.30;99.90;;;;;;7369405;19;20802;-63
2023/03/12 06:34:15;;;;;;;13.43;8.63;;;1.30;99.90;;;;;;7375276;19;20029;-62
2023/03/12 06:36:41;;;;;;;15.00;8.55;;;1.30;99.90;;;;;;7372708;19;20496;-63
2023/03/12 06:39:08;;;;;;;12.75;7.90;;;1.30;99.90;;;;;;7374785;19;20011;-63
2023/03/12 06:41:36;;;;;;;11.75;9.45;;;1.30;99.90;;;;;;7375498;19;20054;-63
2023/03/12 06:44:04;;;;;;;13.23;8.98;;;1.30;99.90;;;;;;7374028;19;20019;-63
2023/03/12 06:46:32;;;;;;;13.52;9.75;;;1.30;99.90;;;;;;7375283;19;20051;-63
2023/03/12 06:48:59;;;;;;;13.63;9.88;;;1.30;99.90;;;;;;7373916;19;20061;-63
2023/03/12 06:51:28;;;;;;;11.80;8.80;;;1.30;99.90;;;;;;7372795;19;20014;-63
2023/03/12 06:53:54;;;;;;;11.25;8.43;;;1.40;99.90;;;;;;7376281;19;20031;-63
2023/03/12 06:56:20;;;;;;;12.48;8.45;;;1.40;99.90;;;;;;7375797;19;20363;-63
2023/03/12 06:58:46;;;;;;;12.35;8.77;;;1.50;99.90;;;;;;7374580;19;20023;-69
2023/03/12 07:01:13;;;;;;;9.88;8.60;;;1.40;99.90;;;;;;7373392;19;20026;-68
2023/03/12 07:03:39;;;;;;;9.23;8.15;;;1.50;99.90;;;;;;7376091;19;20014;-68
2023/03/12 07:06:16;;;;;;;12.50;9.52;;;1.50;99.90;;;;;;7375982;19;20122;-69
2023/03/12 07:08:43;;;;;;;12.65;8.43;;;1.50;99.90;;;;;;7375934;19;20022;-64
2023/03/12 07:11:12;;;;;;;12.80;7.90;;;1.50;99.90;;;;;;7374145;19;20030;-64
2023/03/12 07:13:39;;;;;;;12.50;8.15;;;1.50;99.90;;;;;;7376315;19;20077;-64
2023/03/12 07:16:06;;;;;;;11.70;8.18;;;1.60;99.90;;;;;;7376282;19;20039;-63
2023/03/12 07:18:33;;;;;;;13.43;7.78;;;1.60;99.90;;;;;;7374371;19;20078;-63
2023/03/12 07:21:02;;;;;;;9.82;6.65;;;1.60;99.90;;;;;;7375636;19;20014;-63
2023/03/12 07:23:29;;;;;;;11.23;7.80;;;1.60;99.90;;;;;;7373558;19;20861;-63
2023/03/12 07:25:56;;;;;;;14.57;7.90;;;1.60;99.90;;;;;;7374715;19;20081;-64
2023/03/12 07:28:23;;;;;;;15.05;8.45;;;1.60;99.90;;;;;;7371755;19;20022;-64
2023/03/12 07:30:49;;;;;;;11.88;8.65;;;1.60;99.90;;;;;;7370094;19;20015;-64
2023/03/12 07:33:18;;;;;;;12.93;8.80;;;1.60;99.90;;;;;;7376142;19;20485;-64
2023/03/12 07:35:45;;;;;;;12.73;8.57;;;1.60;99.90;;;;;;7376170;19;20028;-64
2023/03/12 07:38:12;;;;;;;12.80;9.75;;;1.60;99.90;;;;;;7374709;19;20477;-68
2023/03/12 07:40:38;;;;;;;14.77;9.45;;;1.50;99.90;;;;;;7375231;19;20039;-68
2023/03/12 07:43:10;;;;;;;12.65;9.30;;;1.50;99.90;;;;;;7373199;19;20878;-64
2023/03/12 07:45:38;;;;;;;12.68;9.30;;;1.50;99.90;;;;;;7359686;19;20489;-64
2023/03/12 07:48:05;;;;;;;14.93;9.80;;;1.50;99.90;;;;;;7361236;19;20025;-68
2023/03/12 07:50:32;;;;;;;14.35;10.52;;;1.50;99.90;;;;;;7363699;19;20015;-68
2023/03/12 07:52:58;;;;;;;14.60;10.02;;;1.60;99.90;;;;;;7369182;19;20023;-65
2023/03/12 07:55:24;;;;;;;14.63;9.25;;;1.60;99.90;;;;;;7370191;19;20607;-68
2023/03/12 07:57:52;;;;;;;12.45;10.18;;;1.60;99.90;;;;;;7376655;19;20370;-68
2023/03/12 08:00:19;;;;;;;12.13;9.05;;;1.60;99.90;;;;;;7372344;19;20718;-68
2023/03/12 08:02:45;;;;;;;14.82;10.02;;;1.60;99.90;;;;;;7375622;19;20024;-68
2023/03/12 08:05:11;;;;;;;14.50;10.15;;;1.50;99.90;;;;;;7370431;19;20025;-69
2023/03/12 08:07:38;;;;;;;15.07;10.27;;;1.50;99.90;;;;;;7372616;19;20515;-69
2023/03/12 08:10:07;;;;;;;16.50;10.45;;;1.50;99.90;;;;;;7374376;19;20497;-68
2023/03/12 08:12:33;;;;;;;15.75;10.85;;;1.50;99.90;;;;;;7368164;19;20032;-69
2023/03/12 08:15:00;;;;;;;35.47;23.17;;;1.50;99.90;;;;;;7370379;19;20553;-53
2023/03/12 08:17:26;;;;;;;16.65;10.52;;;1.60;99.90;;;;;;7367735;19;21100;-68
2023/03/12 08:19:52;;;;;;;13.85;10.38;;;1.60;99.90;;;;;;7371698;19;20022;-69
2023/03/12 08:22:18;;;;;;;12.30;9.90;;;1.60;99.90;;;;;;7370677;19;20022;-70
2023/03/12 08:24:44;;;;;;;14.07;9.85;;;1.60;99.90;;;;;;7365030;19;20018;-71
2023/03/12 08:27:11;;;;;;;15.00;9.63;;;1.60;99.90;;;;;;7368357;19;20014;-70
2023/03/12 08:29:38;;;;;;;18.60;10.68;;;1.70;99.90;;;;;;7369853;19;20572;-70
2023/03/12 08:32:05;;;;;;;16.17;9.82;;;1.70;99.90;;;;;;7367693;19;20022;-70
2023/03/12 08:34:34;;;;;;;13.40;9.93;;;1.70;99.90;;;;;;7365817;19;20376;-67
2023/03/12 08:37:01;;;;;;;17.15;9.68;;;1.70;99.90;;;;;;7371227;19;20014;-68
2023/03/12 08:39:31;;;;;;;13.52;9.80;;;1.60;99.90;;;;;;7369244;19;20381;-69
2023/03/12 08:42:01;;;;;;;14.82;9.07;;;1.70;99.90;;;;;;7367914;19;20022;-69
2023/03/12 08:44:28;;;;;;;11.35;9.15;;;1.80;99.90;;;;;;7368075;19;20074;-68
2023/03/12 08:46:55;;;;;;;11.07;8.80;;;1.80;99.90;;;;;;7370008;19;20026;-68
2023/03/12 08:49:24;;;;;;;12.90;9.65;;;1.90;99.90;;;;;;7366716;19;20457;-68
2023/03/12 08:51:50;;;;;;;13.93;9.57;;;1.90;99.90;;;;;;7369017;19;20018;-64
2023/03/12 08:54:18;;;;;;;15.30;11.40;;;1.90;99.90;;;;;;7370555;19;20023;-69
2023/03/12 08:56:48;;;;;;;14.07;10.27;;;1.90;99.90;;;;;;7371700;19;20019;-68
2023/03/12 08:59:14;;;;;;;14.10;11.02;;;1.80;99.90;;;;;;7368014;19;20756;-68
2023/03/12 09:01:41;;;;;;;16.05;11.57;;;1.80;99.90;;;;;;7368864;19;22326;-67
2023/03/12 09:04:07;;;;;;;17.30;11.23;;;1.90;99.90;;;;;;7368340;19;20014;-68
2023/03/12 09:06:34;;;;;;;14.95;12.70;;;1.80;99.90;;;;;;7369995;19;20018;-63
2023/03/12 09:09:03;;;;;;;18.35;12.05;;;1.80;99.90;;;;;;7370968;19;20049;-63
2023/03/12 09:11:32;;;;;;;16.40;13.23;;;1.80;99.90;;;;;;7368655;19;20019;-63
2023/03/12 09:13:59;;;;;;;18.85;13.50;;;1.80;99.90;;;;;;7371315;19;20588;-72
2023/03/12 09:16:26;;;;;;;16.10;13.80;;;1.80;99.90;;;;;;7370229;19;20015;-72
2023/03/12 09:18:55;;;;;;;21.15;13.05;;;1.80;99.90;;;;;;7370343;19;20022;-72
2023/03/12 09:21:21;;;;;;;20.63;13.85;;;1.80;99.90;;;;;;7372663;19;20026;-72
2023/03/12 09:23:48;;;;;;;16.67;13.98;;;1.90;99.90;;;;;;7373701;19;20030;-71
2023/03/12 09:26:14;;;;;;;18.73;15.25;;;1.90;99.90;;;;;;7374635;19;20022;-72
2023/03/12 09:28:41;;;;;;;17.95;14.45;;;1.90;99.90;;;;;;7372377;19;20901;-72
2023/03/12 09:31:07;;;;;;;22.88;15.18;;;1.90;99.90;;;;;;7369004;19;20050;-71
2023/03/12 09:33:34;;;;;;;19.08;16.33;;;1.90;99.90;;;;;;7365797;19;20011;-72
2023/03/12 09:36:01;;;;;;;18.10;16.15;;;1.90;99.90;;;;;;7366651;19;20271;-63
2023/03/12 09:38:30;;;;;;;22.52;17.83;;;1.90;99.90;;;;;;7370087;19;20736;-63
2023/03/12 09:40:57;;;;;;;19.70;17.50;;;2.00;99.90;;;;;;7369676;19;20406;-63
2023/03/12 09:43:40;;;;;;;22.15;17.23;;;2.00;99.90;;;;;;7368765;19;20132;-63
2023/03/12 09:46:24;;;;;;;23.05;18.80;;;2.00;99.90;;;;;;7368555;19;20883;-63
2023/03/12 09:48:54;;;;;;;24.27;19.75;;;2.10;99.90;;;;;;7368709;19;20021;-63
2023/03/12 09:51:27;;;;;;;26.77;22.30;;;2.10;99.90;;;;;;7368358;19;20021;-63
2023/03/12 09:53:58;;;;;;;32.45;23.20;;;2.00;99.90;;;;;;7367793;19;20635;-71
2023/03/12 09:56:26;;;;;;;26.48;23.50;;;2.10;99.90;;;;;;7371908;19;20042;-72
2023/03/12 09:58:54;;;;;;;28.77;24.95;;;2.10;99.90;;;;;;7363256;19;20026;-71
2023/03/12 10:01:59;;;;;;;29.75;25.00;;;2.20;99.90;;;;;;7369739;19;20029;-71
2023/03/12 10:04:42;;;;;;;31.60;24.05;;;2.20;99.90;;;;;;7366943;19;20021;-71
2023/03/12 10:07:19;;;;;;;32.85;25.45;;;2.20;99.90;;;;;;7368733;19;20021;-71
2023/03/12 10:10:02;;;;;;;34.30;26.15;;;2.30;99.90;;;;;;7371412;19;20505;-71
2023/03/12 10:13:02;;;;;;;32.80;26.95;;;2.30;99.90;;;;;;7366261;19;20059;-71
2023/03/12 10:15:34;;;;;;;32.42;25.95;;;2.30;99.90;;;;;;7362543;19;20538;-71
2023/03/12 10:18:29;;;;;;;32.53;28.38;;;2.30;99.90;;;;;;7381267;19;20876;-72
2023/03/12 10:21:08;;;;;;;36.08;28.88;;;2.40;99.90;;;;;;7380557;19;20458;-71
2023/03/12 10:24:07;;;;;;;35.75;29.15;;;2.40;99.90;;;;;;7376882;19;20014;-71
2023/03/12 10:26:41;;;;;;;34.22;29.70;;;2.40;99.90;;;;;;7377626;19;20018;-71
2023/03/12 10:29:21;;;;;;;33.92;29.15;;;2.50;99.90;;;;;;7375766;19;20022;-71
2023/03/12 10:32:10;;;;;;;37.50;28.17;;;2.50;99.90;;;;;;7376620;19;20597;-71
2023/03/12 10:34:43;;;;;;;34.90;28.60;;;2.60;99.90;;;;;;7379952;19;20041;-71
2023/03/12 10:37:37;;;;;;;37.75;29.92;;;2.60;99.90;;;;;;7381432;19;20042;-71
2023/03/12 10:40:04;;;;;;;37.40;30.77;;;2.60;99.90;;;;;;7380267;19;20454;-71
2023/03/12 10:42:32;;;;;;;35.30;28.98;;;2.60;99.90;;;;;;7378987;19;20486;-71
2023/03/12 10:45:19;;;;;;;36.75;29.98;;;2.60;99.90;;;;;;7374877;19;20042;-71
2023/03/12 10:47:56;;;;;;;35.03;28.27;;;2.70;99.90;;;;;;7375275;19;20022;-71
2023/03/12 10:50:25;;;;;;;34.50;28.27;;;2.80;99.90;;;;;;7378495;19;20019;-71
2023/03/12 10:53:11;;;;;;;33.42;27.65;;;2.90;99.90;;;;;;7376745;19;20022;-71
2023/03/12 10:55:38;;;;;;;36.55;27.35;;;2.90;99.90;;;;;;7375431;19;20010;-71
2023/03/12 10:58:04;;;;;;;34.88;27.13;;;2.80;99.90;;;;;;7374556;19;20019;-71
2023/03/12 11:00:31;;;;;;;35.72;28.73;;;2.90;99.90;;;;;;7374001;19;20020;-70
2023/03/12 11:03:03;;;;;;;33.38;26.48;;;3.00;99.90;;;;;;7374451;19;20603;-71
2023/03/12 11:05:47;;;;;;;30.00;26.02;;;3.10;99.90;;;;;;7376815;19;20036;-71
2023/03/12 11:08:22;;;;;;;31.90;25.90;;;3.10;99.90;;;;;;7376846;19;20094;-71
2023/03/12 11:10:49;;;;;;;31.60;25.02;;;3.20;99.90;;;;;;7376694;19;20809;-71
2023/03/12 11:13:23;;;;;;;29.73;23.60;;;3.20;99.90;;;;;;7370222;19;20015;-71
2023/03/12 11:15:51;;;;;;;29.48;22.92;;;3.30;99.90;;;;;;7375583;19;20026;-64
2023/03/12 11:18:24;;;;;;;30.48;23.98;;;3.30;99.90;;;;;;7376290;19;20014;-63
2023/03/12 11:21:13;;;;;;;32.60;23.20;;;3.40;99.90;;;;;;7375138;19;20402;-63
2023/03/12 11:24:03;;;;;;;29.95;21.35;;;3.50;99.90;;;;;;7373895;19;20019;-62
2023/03/12 11:26:51;;;;;;;28.90;23.17;;;3.60;99.90;;;;;;7371558;19;20624;-63
2023/03/12 11:29:23;;;;;;;26.45;21.67;;;3.70;99.90;;;;;;7372465;19;20014;-63
2023/03/12 11:31:55;;;;;;;29.33;21.83;;;3.80;99.90;;;;;;7375956;19;20030;-63
2023/03/12 11:34:30;;;;;;;29.10;22.27;;;3.80;99.90;;;;;;7372922;19;20512;-62
2023/03/12 11:37:25;;;;;;;32.63;23.13;;;3.90;99.90;;;;;;7380092;19;20030;-62
2023/03/12 11:39:57;;;;;;;34.63;25.00;;;4.00;99.90;;;;;;7376668;19;20058;-62
2023/03/12 11:42:32;;;;;;;37.17;24.55;;;4.20;99.90;;;;;;7375614;19;20022;-63
2023/03/12 11:45:26;;;;;;;40.30;25.55;;;4.30;99.90;;;;;;7373369;19;20014;-63
2023/03/12 11:47:55;;;;;;;42.13;25.75;;;4.40;99.90;;;;;;7375701;19;20761;-63
2023/03/12 11:50:40;;;;;;;37.00;26.38;;;4.40;99.90;;;;;;7374535;19;20029;-63
2023/03/12 11:53:21;;;;;;;42.55;27.55;;;4.60;99.90;;;;;;7372849;19;20021;-64
2023/03/12 11:55:57;;;;;;;36.05;26.27;;;4.70;99.90;;;;;;7373624;19;20010;-63
2023/03/12 11:58:47;;;;;;;42.30;28.70;;;4.90;99.90;;;;;;7374660;19;20588;-64
2023/03/12 12:01:48;;;;;;;38.05;27.42;;;4.90;99.90;;;;;;7372510;19;20940;-63
2023/03/12 12:04:27;;;;;;;39.47;26.73;;;5.10;99.90;;;;;;7374548;19;20743;-63
2023/03/12 12:07:35;;;;;;;35.65;25.42;;;5.10;99.90;;;;;;7373092;19;20461;-63
2023/03/12 12:10:35;;;;;;;30.10;22.08;;;5.10;99.90;;;;;;7353844;19;20446;-71
2023/03/12 12:13:36;;;;;;;34.08;23.35;;;5.10;99.90;;;;;;7364506;19;20482;-71
2023/03/12 12:16:27;;;;;;;35.07;24.20;;;5.10;99.90;;;;;;7367288;19;20034;-71
2023/03/12 12:19:12;;;;;;;34.28;23.77;;;5.10;99.90;;;;;;7371863;19;20018;-71
2023/03/12 12:22:00;;;;;;;32.53;22.98;;;5.10;99.90;;;;;;7371239;19;20429;-73
2023/03/12 12:24:56;;;;;;;33.17;24.67;;;5.20;99.90;;;;;;7370583;19;20026;-71
2023/03/12 12:27:29;;;;;;;40.38;26.67;;;5.30;99.90;;;;;;7367754;19;20066;-71
2023/03/12 12:30:20;;;;;;;37.05;25.35;;;5.50;99.90;;;;;;7369221;19;20030;-63
2023/03/12 12:32:55;;;;;;;42.30;28.58;;;5.60;99.90;;;;;;7365064;19;20449;-62
2023/03/12 12:35:44;;;;;;;42.08;27.55;;;5.70;99.90;;;;;;7366406;19;20058;-62
2023/03/12 12:38:15;;;;;;;42.72;27.50;;;5.70;99.90;;;;;;7369867;19;20022;-63
2023/03/12 12:40:51;;;;;;;49.22;29.35;;;5.80;99.90;;;;;;7367735;19;20148;-62
2023/03/12 12:43:31;;;;;;;39.60;26.98;;;5.80;99.90;;;;;;7357978;19;20037;-62
2023/03/12 12:46:20;;;;;;;46.90;28.27;;;5.90;99.90;;;;;;7361470;19;20793;-70
2023/03/12 12:48:52;;;;;;;45.40;27.65;;;6.00;99.90;;;;;;7366696;19;20019;-62
2023/03/12 12:51:21;;;;;;;47.60;27.25;;;6.20;99.90;;;;;;7367913;19;20549;-63
2023/03/12 12:54:01;;;;;;;58.42;31.73;;;6.30;99.90;;;;;;7370167;19;20022;-62
2023/03/12 12:56:49;;;;;;;54.00;29.30;;;6.50;99.90;;;;;;7364449;19;20010;-70
2023/03/12 12:59:22;;;;;;;54.78;30.05;;;6.70;99.90;;;;;;7366373;19;20066;-63
2023/03/12 13:01:49;;;;;;;51.58;29.10;;;6.80;99.90;;;;;;7367475;19;20018;-62